Latest Coastal Weather Observations for Port Augusta

IDS60701

Issued at 9:11 pm CST Sunday 1 May 2016 (issued every 10 minutes, with the page automatically refreshed every 10 minutes)

About coastal observations | Map of coastal stations | Coastal observations for SA | Marine services | Other Formats
Station Details ID: 018201 Name: PORT AUGUSTA AERO Lat: -32.51 Lon: 137.72 Height: 13.97 m
Data from the previous 72 hours. | See also: Recent months at Port Augusta
Date/Time
CST
Temp

°C
Wind Pressure Rain
since 9am
mm
Weather Cloud Vis
km
Sea
Height
m
Swell
Dir
 
Speed
knots
Gust
knots
hPa Trend Height
m
Period
s
Dir
01/09:00pm 14.0 SSE 5 8 1018.7 - 0.0 - - 10 - - - -
01/08:30pm 15.4 SSE 8 11 1018.4 - 0.0 - - 10 - - - -
01/08:00pm 15.3 SSE 6 8 1018.4 - 0.0 - - 10 - - - -
01/07:30pm 15.1 SSE 7 9 1018.4 - 0.0 - - 10 - - - -
01/07:00pm 16.0 SE 7 9 1018.3 - 0.0 - - 10 - - - -
01/06:30pm 16.5 SSE 8 10 1018.1 - 0.0 - - 10 - - - -
01/06:00pm 16.9 SSE 9 11 1017.8 - 0.0 - - 10 - - - -
01/05:30pm 17.7 SE 10 13 1017.5 - 0.0 - - 10 - - - -
01/05:00pm 18.3 SE 9 12 1017.5 - 0.0 - - 10 - - - -
01/04:30pm 19.1 SE 9 11 1017.5 - 0.0 - - 10 - - - -
01/04:00pm 19.6 SE 9 11 1017.4 - 0.0 - - 10 - - - -
01/03:30pm 19.6 SE 9 13 1017.5 - 0.0 - - 10 - - - -
01/03:00pm 20.1 SE 8 11 1017.4 - 0.0 - Mostly clear 10 - - - -
01/02:30pm 19.8 SE 9 15 1017.5 - 0.0 - Partly cloudy 10 - - - -
01/02:00pm 20.2 SE 10 14 1017.5 - 0.0 - Partly cloudy 10 - - - -
01/01:30pm 20.0 SE 10 14 1017.6 - 0.0 - Partly cloudy 10 - - - -
01/01:00pm 20.3 SW 7 15 1018.1 - 0.0 - - 10 - - - -
01/12:30pm 20.1 WSW 10 17 1018.5 - 0.0 - Partly cloudy 10 - - - -
01/12:00pm 19.2 SSW 8 15 1018.8 - 0.0 - Partly cloudy 10 - - - -
01/11:30am 19.4 SSW 10 15 1019.1 - 0.0 - Partly cloudy 10 - - - -
01/11:00am 19.0 SW 11 17 1019.3 - 0.0 - Partly cloudy 10 - - - -
01/10:30am 18.4 SW 11 16 1019.3 - 0.0 - Partly cloudy 10 - - - -
01/10:00am 17.9 SSW 11 17 1019.3 - 0.0 - - 10 - - - -
01/09:30am 17.3 SSW 12 17 1019.1 - 0.0 - - 10 - - - -
01/09:00am 16.9 S 11 15 1018.5 - 0.0 - - 10 - - - -
01/08:30am 15.4 SSW 9 12 1018.4 - 0.0 - - 10 - - - -
01/08:00am 15.0 S 8 11 1018.2 - 0.0 - - 10 - - - -
01/07:30am 12.3 S 5 7 1018.0 - 0.0 - - 10 - - - -
01/07:00am 12.5 S 3 5 1018.0 - 0.0 - - 10 - - - -
01/06:30am 12.0 ESE 3 4 1018.0 - 0.0 - - 10 - - - -
01/06:00am 11.7 ESE 5 6 1018.0 - 0.0 - - 10 - - - -
01/05:30am 11.2 SE 1 4 1017.7 - 0.0 - - 10 - - - -
01/05:00am 10.9 NE 5 6 1017.7 - 0.0 - - 10 - - - -
01/04:30am 13.4 WNW 7 11 1017.3 - 0.0 - Partly cloudy 10 - - - -
01/04:00am 12.1 WNW 8 8 1017.1 - 0.0 - Partly cloudy 10 - - - -
01/03:30am 11.2 NNW 5 7 1016.7 - 0.0 - - 10 - - - -
01/03:00am 12.9 WNW 6 7 1016.5 - 0.0 - - 10 - - - -
01/02:30am 13.0 W 5 6 1016.3 - 0.0 - - 10 - - - -
01/02:00am 14.0 WSW 5 7 1016.1 - 0.0 - - 10 - - - -
01/01:30am 15.2 WSW 8 11 1015.9 - 0.0 - - 10 - - - -
01/01:00am 15.6 WSW 4 7 1015.5 - 0.0 - - 10 - - - -
01/12:30am 16.2 WNW 3 4 1015.1 - 0.0 - - 10 - - - -
01/12:00am 16.9 W 5 7 1014.7 - 0.0 - - 10 - - - -
 
Date/Time
CST
Temp

°C
Wind Pressure Rain
since 9am
mm
Weather Cloud Vis
km
Sea
Height
m
Swell
Dir
 
Speed
knots
Gust
knots
hPa Trend Height
m
Period
s
Dir
30/11:30pm 17.6 WSW 6 11 1013.9 - 0.0 - - 10 - - - -
30/11:00pm 18.0 W 12 16 1013.3 - 0.0 - - 10 - - - -
30/10:30pm 18.2 WNW 11 18 1013.1 - 0.0 - - 10 - - - -
30/10:00pm 18.6 WSW 17 24 1012.9 - 0.0 - - 10 - - - -
30/09:30pm 19.1 WSW 21 29 1012.5 - 0.0 - Partly cloudy 10 - - - -
30/09:27pm 19.1 WSW 21 29 1012.5 - 0.0 - Partly cloudy 10 - - - -
30/09:00pm 20.1 SW 23 32 1012.0 - 0.0 - Mostly cloudy 10 - - - -
30/08:49pm 20.7 SW 22 34 1011.6 - 0.0 - Partly cloudy 9 - - - -
30/08:37pm 21.2 SW 26 36 1011.2 - 0.0 - Partly cloudy 6 - - - -
30/08:36pm 21.2 SW 26 36 1011.1 - 0.0 - Partly cloudy 6 - - - -
30/08:33pm 21.5 SW 26 36 1011.0 - 0.0 - Partly cloudy 7 - - - -
30/08:30pm 21.7 WSW 23 33 1011.0 - 0.0 - Partly cloudy 10 - - - -
30/08:24pm 23.9 W 15 32 1010.6 - 0.0 - Partly cloudy 10 - - - -
30/08:00pm 25.6 WNW 14 19 1009.5 - 0.0 - Partly cloudy 10 - - - -
30/07:30pm 26.2 NW 17 22 1008.9 - 0.0 - - 10 - - - -
30/07:00pm 26.1 WNW 16 21 1008.5 - 0.0 - - 10 - - - -
30/06:30pm 26.8 NW 16 21 1008.0 - 0.0 - Partly cloudy 10 - - - -
30/06:00pm 27.4 WNW 17 25 1007.8 - 0.0 - Cloudy 10 - - - -
30/05:30pm 28.2 NNW 17 20 1007.3 - 0.0 - Partly cloudy 10 - - - -
30/05:00pm 28.8 NNW 18 25 1007.3 - 0.0 - Partly cloudy 10 - - - -
30/04:30pm 29.1 NNW 20 25 1007.2 - 0.0 - Partly cloudy 10 - - - -
30/04:00pm 28.5 NW 21 27 1007.8 - 0.0 - Partly cloudy 10 - - - -
30/03:51pm 28.6 NW 22 32 1008.0 - 0.0 - Partly cloudy 10 - - - -
30/03:30pm 28.4 NNW 20 28 1008.3 - 0.0 - Partly cloudy 10 - - - -
30/03:00pm 29.0 NNW 23 30 1008.4 - 0.0 - Partly cloudy 10 - - - -
30/02:32pm 29.5 NNW 19 29 1008.5 - 0.0 - Partly cloudy 10 - - - -
30/02:30pm 29.4 NNW 19 26 1008.5 - 0.0 - Partly cloudy 10 - - - -
30/02:00pm 28.1 NNW 19 31 1009.1 - 0.0 - Partly cloudy 10 - - - -
30/01:30pm 29.1 NNW 19 32 1009.4 - 0.0 - Partly cloudy 10 - - - -
30/01:29pm 29.4 NNW 18 32 1009.4 - 0.0 - Partly cloudy 10 - - - -
30/01:00pm 28.3 NNW 19 25 1010.2 - 0.0 - - 10 - - - -
30/12:30pm 26.9 NNW 17 23 1011.0 - 0.0 - - 10 - - - -
30/12:00pm 26.9 N 13 17 1011.6 - 0.0 - - 10 - - - -
30/11:30am 26.4 N 12 19 1012.5 - 0.0 - - 10 - - - -
30/11:00am 25.0 N 11 15 1013.2 - 0.0 - Partly cloudy 10 - - - -
30/10:30am 23.6 N 11 14 1013.8 - 0.0 - - 10 - - - -
30/10:00am 23.3 NNW 8 13 1014.0 - 0.0 - - 10 - - - -
30/09:30am 22.0 N 9 11 1014.2 - 0.0 - - 10 - - - -
30/09:00am 20.5 N 9 13 1014.4 - - - - 10 - - - -
30/08:30am 18.1 NNW 6 8 1014.6 - - - - 10 - - - -
30/08:00am 16.1 W 5 6 1014.4 - - - - 10 - - - -
30/07:30am 13.2 WSW 5 6 1014.5 - - - - 10 - - - -
30/07:00am 11.0 WSW 6 6 1014.3 - - - - 10 - - - -
30/06:30am 10.7 WSW 5 6 1014.1 - - - - 10 - - - -
30/06:00am 10.8 W 4 5 1013.8 - - - - 10 - - - -
30/05:30am 11.1 CALM 0 0 1013.8 - - - Partly cloudy 10 - - - -
30/05:00am 11.2 CALM 0 1 1013.5 - - - - 10 - - - -
30/04:30am 11.2 CALM 0 0 1013.3 - - - Partly cloudy 10 - - - -
30/04:00am 12.3 CALM 0 0 1013.2 - - - - 10 - - - -
30/03:30am 11.9 WNW 4 6 1013.3 - - - - 10 - - - -
30/03:00am 12.7 W 4 4 1013.4 - 0.0 - - 10 - - - -
30/02:30am 13.3 WSW 3 4 1013.4 - - - - 10 - - - -
30/02:00am 14.4 NW 4 4 1013.5 - - - - 10 - - - -
30/01:30am 14.0 NNW 5 5 1013.6 - - - - 10 - - - -
30/01:00am 15.4 CALM 0 0 1013.4 - - - - 10 - - - -
30/12:30am 14.9 WNW 4 5 1013.5 - - - - 10 - - - -
30/12:00am 16.3 CALM 0 0 1013.8 - - - - 10 - - - -
 
Date/Time
CST
Temp

°C
Wind Pressure Rain
since 9am
mm
Weather Cloud Vis
km
Sea
Height
m
Swell
Dir
 
Speed
knots
Gust
knots
hPa Trend Height
m
Period
s
Dir
29/11:30pm 16.6 W 6 6 1013.9 - - - - 10 - - - -
29/11:00pm 18.2 WSW 4 5 1014.2 - - - - 10 - - - -
29/10:30pm 17.7 W 3 5 1014.4 - - - - 10 - - - -
29/10:00pm 19.0 SW 5 7 1014.2 - - - Partly cloudy 10 - - - -
29/09:30pm 17.8 NW 4 5 1013.8 - - - Partly cloudy 10 - - - -
29/09:00pm 19.7 NW 5 7 1013.4 - 0.0 - - 10 - - - -
29/08:30pm 20.2 NW 6 7 1013.1 - - - - 10 - - - -
29/08:00pm 20.8 WNW 7 8 1012.8 - - - - 10 - - - -
29/07:30pm 22.0 NW 9 10 1012.5 - - - - 10 - - - -
29/07:00pm 22.4 NW 8 10 1011.9 - - - - 10 - - - -
29/06:30pm 21.9 NW 7 9 1011.6 - - - - 10 - - - -
29/06:00pm 23.9 WNW 7 10 1011.5 - - - - 10 - - - -
29/05:30pm 26.1 WNW 8 10 1011.4 - - - Partly cloudy 10 - - - -
29/05:00pm 26.8 WNW 6 9 1011.1 - - - Partly cloudy 10 - - - -
29/04:30pm 26.7 W 9 12 1011.1 - - - - 10 - - - -
29/04:00pm 26.9 NW 11 15 1011.2 - - - Partly cloudy 10 - - - -
29/03:30pm 27.9 WNW 10 13 1011.2 - - - Partly cloudy 10 - - - -
29/03:00pm 27.1 WNW 12 17 1011.0 - - - Mostly cloudy 10 - - - -
29/02:30pm 26.7 NW 11 15 1011.0 - - - Partly cloudy 10 - - - -
29/02:00pm 26.5 NW 12 15 1011.1 - - - Cloudy 10 - - - -
29/01:30pm 26.8 NW 14 21 1011.1 - - - Cloudy 10 - - - -
29/01:00pm 26.8 NW 15 21 1011.6 - - - Partly cloudy 10 - - - -
29/12:30pm 27.1 NW 14 19 1011.9 - - - - 10 - - - -
29/12:00pm 26.0 NNW 17 21 1012.2 - - - - 10 - - - -
29/11:30am 25.3 NW 14 24 1012.6 - 0.0 - - 10 - - - -
29/11:00am 24.8 NNW 13 17 1012.8 - 0.0 - - 10 - - - -
29/10:30am 24.5 NNW 13 16 1013.1 - 0.0 - - 10 - - - -
29/10:00am 22.2 N 9 11 1013.2 - 0.0 - - 10 - - - -
29/09:30am 20.7 NNW 4 6 1013.4 - 0.0 - - 10 - - - -
29/09:00am 19.5 NNW 5 6 1013.5 - 0.8 - Mostly cloudy 10 - - - -
29/08:30am 18.4 N 7 8 1013.4 - 0.8 - - 10 - - - -
29/08:00am 17.9 ENE 4 5 1013.3 - 0.8 - Partly cloudy 10 - - - -
29/07:30am 17.6 ENE 11 14 1012.9 - 0.8 - Cloudy 10 - - - -
29/07:00am 17.7 SSE 6 7 1013.6 - 0.8 - Partly cloudy 10 - - - -
29/06:30am 19.3 SW 6 7 1013.8 - 0.2 - Cloudy 10 - - - -
29/06:00am 19.5 WSW 8 10 1013.6 - 0.2 Recent precip. Cloudy 10 - - - -
29/05:30am 19.1 W 4 6 1012.9 - 0.2 - Partly cloudy 10 - - - -
29/05:00am 19.1 NNE 5 8 1012.5 - 0.2 - Partly cloudy 10 - - - -
29/04:30am 18.8 NNE 5 7 1012.5 - 0.2 - Cloudy 10 - - - -
29/04:00am 19.1 SSW 5 5 1012.6 - 0.2 - Partly cloudy 10 - - - -
29/03:30am 20.1 ESE 6 7 1012.8 - 0.0 - Cloudy 10 - - - -
29/03:00am 21.0 E 6 7 1012.7 - 0.0 Rain Cloudy 10 - - - -
29/02:30am 20.8 NE 7 9 1012.9 - 0.0 - Partly cloudy 10 - - - -
29/02:00am 21.5 NE 7 8 1012.7 - 0.0 - Cloudy 10 - - - -
29/01:30am 22.6 WSW 1 4 1012.8 - 0.0 - Cloudy 10 - - - -
29/01:00am 23.2 WSW 6 8 1012.7 - 0.0 - Cloudy 10 - - - -
29/12:30am 24.1 SW 6 9 1012.6 - 0.0 - Cloudy 10 - - - -
29/12:00am 22.6 WSW 8 10 1012.6 - 0.0 - Mostly cloudy 10 - - - -
 
Date/Time
CST
Temp

°C
Wind Pressure Rain
since 9am
mm
Weather Cloud Vis
km
Sea
Height
m
Swell
Dir
 
Speed
knots
Gust
knots
hPa Trend Height
m
Period
s
Dir
28/11:30pm 22.7 W 6 9 1012.6 - 0.0 - Cloudy 10 - - - -
28/11:00pm 23.9 NW 6 7 1012.7 - 0.0 - Cloudy 10 - - - -
28/10:30pm 23.5 WNW 6 7 1012.5 - 0.0 - Partly cloudy 10 - - - -
28/10:00pm 24.2 N 8 9 1012.3 - 0.0 - - 10 - - - -
28/09:30pm 23.4 N 7 9 1012.3 - 0.0 - - 10 - - - -

Other Formats:

Comma delimited format used in spreadsheet applications
http://www.bom.gov.au/fwo/IDS60701/IDS60701.95666.axf

JavaScript Object Notation format (JSON) in row-major order
http://www.bom.gov.au/fwo/IDS60701/IDS60701.95666.json